Time;durP1;ratioP1;P1;durP2;ratioP2;P2;SDS_P1;SDS_P2;PMS_P1;PMS_P2;Temp;Humidity;BMP_temperature;BMP_pressure;BME280_temperature;BME280_humidity;BME280_pressure;Samples;Min_cycle;Max_cycle;Signal;HPM_P1;HPM_P2
2021/08/03 00:02:06;;;;;;;;;;;;;;;15.24;80.83;98092.84;1755716;80;24453;-86
2021/08/03 00:04:38;;;;;;;;;;;;;;;15.21;80.81;98089.20;1759640;81;20245;-86
2021/08/03 00:07:04;;;;;;;;;;;;;;;15.21;80.79;98087.87;1756231;81;24825;-86
2021/08/03 00:09:32;;;;;;;;;;;;;;;15.23;80.77;98089.38;1761744;81;22041;-87
2021/08/03 00:12:01;;;;;;;;;;;;;;;15.20;80.77;98080.94;1757614;81;26886;-87
2021/08/03 00:14:28;;;;;;;;;;;;;;;15.13;80.77;98088.59;1760329;81;24645;-86
2021/08/03 00:16:55;;;;;;;;;;;;;;;15.07;80.76;98091.79;1762513;81;20168;-87
2021/08/03 00:19:27;;;;;;;;;;;;;;;15.08;80.75;98089.50;1762594;80;24899;-86
2021/08/03 00:21:53;;;;;;;;;;;;;;;15.03;80.75;98091.26;1758096;81;22240;-86
2021/08/03 00:24:23;;;;;;;;;;;;;;;14.96;80.75;98098.55;1760295;81;26099;-86
2021/08/03 00:26:50;;;;;;;;;;;;;;;14.92;80.80;98101.13;1760409;81;24795;-86
2021/08/03 00:29:16;;;;;;;;;;;;;;;14.86;80.85;98105.17;1757857;81;20409;-86
2021/08/03 00:31:43;;;;;;;;;;;;;;;14.86;80.88;98112.23;1762170;81;20263;-87
2021/08/03 00:34:09;;;;;;;;;;;;;;;14.83;80.88;98104.63;1763079;81;21987;-86
2021/08/03 00:36:37;;;;;;;;;;;;;;;14.88;80.90;98102.40;1761819;81;26111;-87
2021/08/03 00:39:03;;;;;;;;;;;;;;;14.90;80.91;98099.95;1757924;81;20875;-86
2021/08/03 00:41:30;;;;;;;;;;;;;;;14.90;80.92;98100.43;1760900;81;20242;-87
2021/08/03 00:43:57;;;;;;;;;;;;;;;14.91;80.89;98104.25;1759439;81;25001;-87
2021/08/03 00:46:24;;;;;;;;;;;;;;;14.93;80.90;98098.84;1761719;81;22154;-86
2021/08/03 00:48:50;;;;;;;;;;;;;;;14.95;80.93;98095.08;1755579;81;26011;-87
2021/08/03 00:51:22;;;;;;;;;;;;;;;15.00;80.91;98092.05;1752033;81;20840;-86
2021/08/03 00:53:51;;;;;;;;;;;;;;;15.02;80.92;98093.55;1746460;81;20193;-86
2021/08/03 00:56:17;;;;;;;;;;;;;;;15.03;80.92;98087.79;1751780;81;24683;-86
2021/08/03 00:58:43;;;;;;;;;;;;;;;15.05;80.90;98088.48;1750616;81;22010;-86
2021/08/03 01:01:09;;;;;;;;;;;;;;;15.01;80.89;98089.24;1752051;81;26162;-86
2021/08/03 01:03:35;;;;;;;;;;;;;;;14.99;80.89;98087.73;1749593;81;24409;-86
2021/08/03 01:06:06;;;;;;;;;;;;;;;15.00;80.88;98089.41;1751506;81;20251;-86
2021/08/03 01:08:47;;;;;;;;;;;;;;;15.01;80.85;98089.24;1750390;81;25447;-86
2021/08/03 01:11:14;;;;;;;;;;;;;;;14.98;80.84;98091.34;1743583;81;22841;-86
2021/08/03 01:13:51;;;;;;;;;;;;;;;14.97;80.81;98098.90;1751792;81;26051;-86
2021/08/03 01:16:33;;;;;;;;;;;;;;;14.96;80.75;98094.59;1750776;81;24410;-86
2021/08/03 01:19:24;;;;;;;;;;;;;;;14.90;80.74;98089.89;1748308;81;20217;-86
2021/08/03 01:22:12;;;;;;;;;;;;;;;14.89;80.70;98093.02;1751963;81;24821;-86
2021/08/03 01:24:45;;;;;;;;;;;;;;;14.87;80.68;98095.46;1752324;81;22073;-86
2021/08/03 01:27:22;;;;;;;;;;;;;;;14.80;80.65;98087.28;1750824;81;26191;-86
2021/08/03 01:29:49;;;;;;;;;;;;;;;14.75;80.64;98089.52;1749642;81;24687;-86
2021/08/03 01:32:17;;;;;;;;;;;;;;;14.70;80.65;98086.96;1752138;81;20718;-86
2021/08/03 01:34:45;;;;;;;;;;;;;;;14.67;80.67;98091.21;1750493;81;24963;-86
2021/08/03 01:37:12;;;;;;;;;;;;;;;14.65;80.67;98092.17;1743967;81;22019;-86
2021/08/03 01:39:40;;;;;;;;;;;;;;;14.64;80.70;98091.83;1760268;81;25945;-86
2021/08/03 01:42:07;;;;;;;;;;;;;;;14.61;80.71;98092.12;1752594;81;23884;-86
2021/08/03 01:44:34;;;;;;;;;;;;;;;14.60;80.75;98090.45;1752864;81;20217;-86
2021/08/03 01:47:02;;;;;;;;;;;;;;;14.57;80.78;98095.98;1750185;81;24745;-86
2021/08/03 01:49:40;;;;;;;;;;;;;;;14.57;80.81;98091.20;1734198;81;22110;-86
2021/08/03 01:52:11;;;;;;;;;;;;;;;14.51;80.81;98089.95;1727907;82;26009;-86
2021/08/03 01:54:37;;;;;;;;;;;;;;;14.47;80.83;98098.28;1729845;82;24477;-86
2021/08/03 01:57:04;;;;;;;;;;;;;;;14.43;80.87;98095.59;1734792;82;20254;-86
2021/08/03 01:59:36;;;;;;;;;;;;;;;14.40;80.90;98094.56;1734538;82;24428;-86
2021/08/03 02:02:02;;;;;;;;;;;;;;;14.33;80.91;98107.41;1730560;82;21839;-86
2021/08/03 02:04:33;;;;;;;;;;;;;;;14.29;80.94;98102.08;1726030;82;26959;-86
2021/08/03 02:07:03;;;;;;;;;;;;;;;14.28;80.99;98107.48;1738169;81;25313;-86
2021/08/03 02:09:29;;;;;;;;;;;;;;;14.26;81.03;98108.92;1738834;81;20231;-86
2021/08/03 02:11:55;;;;;;;;;;;;;;;14.23;81.08;98114.00;1714833;82;24728;-86
2021/08/03 02:14:22;;;;;;;;;;;;;;;14.22;81.13;98111.01;1712294;82;21995;-86
2021/08/03 02:16:48;;;;;;;;;;;;;;;14.22;81.16;98111.01;1708242;82;26065;-86
2021/08/03 02:19:14;;;;;;;;;;;;;;;14.25;81.20;98111.20;1710284;82;24517;-86
2021/08/03 02:21:46;;;;;;;;;;;;;;;14.24;81.23;98112.16;1706106;82;20221;-86
2021/08/03 02:24:17;;;;;;;;;;;;;;;14.25;81.27;98119.10;1716088;82;24976;-87
2021/08/03 02:26:40;;;;;;;;;;;;;;;14.26;81.34;98122.08;1717282;82;21957;-87
2021/08/03 02:29:07;;;;;;;;;;;;;;;14.27;81.40;98121.13;1741825;81;26689;-86
2021/08/03 02:31:40;;;;;;;;;;;;;;;14.28;81.45;98124.59;1725780;83;24531;-86
2021/08/03 02:34:15;;;;;;;;;;;;;;;14.30;81.49;98126.09;1739790;81;20261;-86
2021/08/03 02:36:43;;;;;;;;;;;;;;;14.35;81.52;98125.20;1727828;82;25414;-86
2021/08/03 02:39:10;;;;;;;;;;;;;;;14.40;81.55;98131.42;1732365;82;22000;-85
2021/08/03 02:41:36;;;;;;;;;;;;;;;14.37;81.58;98130.36;1733413;82;26257;-86
2021/08/03 02:44:03;;;;;;;;;;;;;;;14.40;81.63;98126.16;1731750;81;24485;-86
2021/08/03 02:46:29;;;;;;;;;;;;;;;14.42;81.66;98128.98;1733975;82;20628;-86
2021/08/03 02:49:16;;;;;;;;;;;;;;;14.46;81.63;98128.20;1733080;81;24379;-86
2021/08/03 02:51:34;;;;;;;;;;;;;;;14.49;81.64;98134.05;1765737;80;22036;-86
2021/08/03 02:54:01;;;;;;;;;;;;;;;14.49;81.66;98140.63;1771109;80;26181;-87
2021/08/03 02:56:31;;;;;;;;;;;;;;;14.48;81.65;98146.03;1749094;80;25188;-87
2021/08/03 02:58:59;;;;;;;;;;;;;;;14.47;81.65;98139.92;1757920;81;20453;-87
2021/08/03 03:01:33;;;;;;;;;;;;;;;14.48;81.65;98141.59;1771558;80;25203;-87
2021/08/03 03:03:59;;;;;;;;;;;;;;;14.48;81.69;98137.64;1772672;80;22015;-87
2021/08/03 03:06:25;;;;;;;;;;;;;;;14.45;81.68;98139.73;1768518;80;26149;-87
2021/08/03 03:08:53;;;;;;;;;;;;;;;14.41;81.68;98139.16;1763197;80;24411;-86
2021/08/03 03:11:29;;;;;;;;;;;;;;;14.37;81.68;98143.05;1763631;80;20252;-86
2021/08/03 03:14:00;;;;;;;;;;;;;;;14.32;81.70;98147.03;1744049;80;24781;-87
2021/08/03 03:16:28;;;;;;;;;;;;;;;14.24;81.71;98149.84;1754963;81;22057;-86
2021/08/03 03:18:57;;;;;;;;;;;;;;;14.20;81.71;98145.00;1767960;80;26097;-86
2021/08/03 03:21:26;;;;;;;;;;;;;;;14.21;81.74;98151.94;1730667;82;24505;-87
2021/08/03 03:23:53;;;;;;;;;;;;;;;14.27;81.78;98146.61;1727311;82;20485;-87
2021/08/03 03:26:21;;;;;;;;;;;;;;;14.30;81.80;98156.84;1733220;80;25381;-87
2021/08/03 03:28:48;;;;;;;;;;;;;;;14.31;81.82;98151.45;1748548;81;22884;-87
2021/08/03 03:31:16;;;;;;;;;;;;;;;14.32;81.84;98147.03;1745723;82;25983;-89
2021/08/03 03:33:42;;;;;;;;;;;;;;;14.29;81.89;98150.78;1774536;79;24514;-89
2021/08/03 03:36:09;;;;;;;;;;;;;;;14.28;81.87;98155.69;1769391;80;20436;-89
2021/08/03 03:38:37;;;;;;;;;;;;;;;14.27;81.89;98152.70;1760328;81;24808;-89
2021/08/03 03:41:04;;;;;;;;;;;;;;;14.28;81.92;98157.48;1776287;80;22284;-89
2021/08/03 03:43:30;;;;;;;;;;;;;;;14.27;81.94;98161.92;1773633;79;26240;-89
2021/08/03 03:45:59;;;;;;;;;;;;;;;14.27;81.98;98166.35;1769770;80;25150;-89
2021/08/03 03:48:27;;;;;;;;;;;;;;;14.25;82.01;98160.73;1760914;80;20305;-89
2021/08/03 03:50:59;;;;;;;;;;;;;;;14.27;82.06;98169.81;1773112;80;25521;-89
2021/08/03 03:53:26;;;;;;;;;;;;;;;14.25;82.08;98167.31;1743309;81;22047;-89
2021/08/03 03:55:58;;;;;;;;;;;;;;;14.28;82.13;98170.17;1734111;81;26714;-89
2021/08/03 03:58:25;;;;;;;;;;;;;;;14.33;82.17;98165.80;1737972;82;24525;-89
2021/08/03 04:00:51;;;;;;;;;;;;;;;14.36;82.21;98166.36;1746063;81;20494;-89
2021/08/03 04:03:19;;;;;;;;;;;;;;;14.39;82.28;98163.98;1745742;81;24243;-88
2021/08/03 04:05:46;;;;;;;;;;;;;;;14.42;82.34;98161.05;1765620;80;21976;-90
2021/08/03 04:08:12;;;;;;;;;;;;;;;14.46;82.38;98158.00;1770780;81;26910;-89
2021/08/03 04:10:39;;;;;;;;;;;;;;;14.50;82.45;98161.22;1767613;81;24441;-89
2021/08/03 04:13:09;;;;;;;;;;;;;;;14.53;82.50;98162.23;1766191;80;33446;-88
2021/08/03 04:15:35;;;;;;;;;;;;;;;14.57;82.56;98153.92;1734703;80;24776;-89
2021/08/03 04:18:01;;;;;;;;;;;;;;;14.60;82.61;98161.56;1722780;82;20927;-89
2021/08/03 04:20:27;;;;;;;;;;;;;;;14.64;82.64;98163.42;1719400;82;26154;-88
2021/08/03 04:22:53;;;;;;;;;;;;;;;14.73;82.68;98163.09;1746501;81;20340;-88
2021/08/03 04:25:22;;;;;;;;;;;;;;;14.78;82.76;98162.18;1745864;81;20862;-88
2021/08/03 04:27:48;;;;;;;;;;;;;;;14.81;82.80;98158.77;1743500;81;24740;-89
2021/08/03 04:30:16;;;;;;;;;;;;;;;14.82;82.82;98150.38;1760333;81;22039;-88
2021/08/03 04:32:44;;;;;;;;;;;;;;;14.87;82.84;98154.27;1766389;81;26674;-89
2021/08/03 04:35:11;;;;;;;;;;;;;;;14.91;82.87;98161.38;1742636;81;24467;-88
2021/08/03 04:37:39;;;;;;;;;;;;;;;14.90;82.89;98161.87;1763770;81;20556;-89
2021/08/03 04:40:06;;;;;;;;;;;;;;;14.91;82.90;98160.06;1766718;81;24773;-89
2021/08/03 04:42:32;;;;;;;;;;;;;;;14.90;82.91;98161.87;1741340;81;21981;-88
2021/08/03 04:44:58;;;;;;;;;;;;;;;14.92;82.91;98158.62;1719082;81;26000;-88
2021/08/03 04:47:26;;;;;;;;;;;;;;;14.97;82.93;98153.75;1716722;81;20233;-88
2021/08/03 04:49:52;;;;;;;;;;;;;;;15.05;82.94;98155.70;1752378;80;20774;-89
2021/08/03 04:52:18;;;;;;;;;;;;;;;15.07;82.97;98153.73;1768719;80;20220;-89
2021/08/03 04:54:44;;;;;;;;;;;;;;;15.17;83.03;98149.27;1769601;80;21966;-89
2021/08/03 04:57:10;;;;;;;;;;;;;;;15.24;83.07;98154.31;1766265;80;25923;-89
2021/08/03 04:59:37;;;;;;;;;;;;;;;15.30;83.11;98147.64;1771916;79;20277;-89
2021/08/03 05:02:08;;;;;;;;;;;;;;;15.37;83.17;98137.70;1767752;80;20245;-89
2021/08/03 05:04:34;;;;;;;;;;;;;;;15.45;83.23;98142.23;1742183;81;24837;-89
2021/08/03 05:06:59;;;;;;;;;;;;;;;15.51;83.26;98144.30;1765377;80;22021;-89
2021/08/03 05:09:25;;;;;;;;;;;;;;;15.58;83.26;98148.06;1762391;80;26185;-88
2021/08/03 05:11:51;;;;;;;;;;;;;;;15.69;83.30;98151.00;1742756;82;20767;-89
2021/08/03 05:14:19;;;;;;;;;;;;;;;15.72;83.35;98153.33;1743219;82;20262;-88
2021/08/03 05:16:47;;;;;;;;;;;;;;;15.77;83.39;98155.87;1760506;80;24737;-89
2021/08/03 05:19:13;;;;;;;;;;;;;;;15.84;83.38;98156.95;1772684;80;22167;-88
2021/08/03 05:21:39;;;;;;;;;;;;;;;15.86;83.35;98158.14;1747727;80;21113;-87
2021/08/03 05:24:05;;;;;;;;;;;;;;;15.91;83.29;98159.84;1771379;80;20314;-89
2021/08/03 05:26:31;;;;;;;;;;;;;;;15.96;83.26;98162.88;1774891;80;20786;-88
2021/08/03 05:28:57;;;;;;;;;;;;;;;16.05;83.23;98163.78;1769998;80;20779;-88
2021/08/03 05:31:23;;;;;;;;;;;;;;;16.07;83.22;98161.84;1745203;80;20298;-88
2021/08/03 05:33:55;;;;;;;;;;;;;;;16.15;83.20;98166.70;1730889;82;25602;-89
2021/08/03 05:36:21;;;;;;;;;;;;;;;16.18;83.21;98163.78;1766350;80;24500;-88
2021/08/03 05:38:47;;;;;;;;;;;;;;;16.24;83.21;98161.88;1756660;81;20316;-89
2021/08/03 05:41:13;;;;;;;;;;;;;;;16.35;83.22;98160.83;1756803;81;20244;-89
2021/08/03 05:43:39;;;;;;;;;;;;;;;16.40;83.21;98159.05;1763598;81;20271;-89
2021/08/03 05:46:05;;;;;;;;;;;;;;;16.46;83.20;98164.56;1756054;81;21016;-89
2021/08/03 05:48:39;;;;;;;;;;;;;;;16.57;83.19;98163.51;1757547;81;20819;-89
2021/08/03 05:51:05;;;;;;;;;;;;;;;16.67;83.20;98165.61;1751309;80;20210;-89
2021/08/03 05:53:33;;;;;;;;;;;;;;;16.77;83.22;98167.67;1781761;80;20357;-89
2021/08/03 05:56:02;;;;;;;;;;;;;;;16.84;83.22;98159.48;1744498;80;21995;-89
2021/08/03 05:58:28;;;;;;;;;;;;;;;16.91;83.21;98164.47;1733526;82;26050;-89
2021/08/03 06:00:54;;;;;;;;;;;;;;;16.97;83.18;98167.83;1758890;81;20386;-88
2021/08/03 06:03:20;;;;;;;;;;;;;;;17.02;83.12;98166.88;1773759;80;20825;-89
2021/08/03 06:05:46;;;;;;;;;;;;;;;17.09;83.06;98168.41;1761541;79;20826;-89
2021/08/03 06:08:14;;;;;;;;;;;;;;;17.12;83.02;98172.92;1754987;81;21919;-89
2021/08/03 06:10:42;;;;;;;;;;;;;;;17.19;82.99;98173.60;1770872;80;26742;-88
2021/08/03 06:13:10;;;;;;;;;;;;;;;17.25;82.94;98179.59;1749223;82;24399;-90
2021/08/03 06:15:38;;;;;;;;;;;;;;;17.34;82.91;98186.13;1728938;82;20294;-89
2021/08/03 06:18:06;;;;;;;;;;;;;;;17.36;82.88;98180.66;1766950;80;24762;-88
2021/08/03 06:20:39;;;;;;;;;;;;;;;17.45;82.86;98183.23;1771672;80;22238;-89
2021/08/03 06:23:05;;;;;;;;;;;;;;;17.50;82.85;98185.40;1777091;80;25948;-89
2021/08/03 06:25:32;;;;;;;;;;;;;;;17.54;82.77;98180.95;1763354;80;24488;-89
2021/08/03 06:27:58;;;;;;;;;;;;;;;17.57;82.69;98184.59;1776341;80;20589;-88
2021/08/03 06:30:27;;;;;;;;;;;;;;;17.62;82.59;98186.00;1770079;80;24812;-89
2021/08/03 06:32:54;;;;;;;;;;;;;;;17.69;82.47;98181.71;1778695;79;22396;-89
2021/08/03 06:35:22;;;;;;;;;;;;;;;17.77;82.38;98189.22;1780476;80;26737;-89
2021/08/03 06:37:48;;;;;;;;;;;;;;;17.82;82.30;98190.89;1774282;80;24482;-89
2021/08/03 06:40:14;;;;;;;;;;;;;;;17.87;82.21;98188.59;1752936;81;20719;-89
2021/08/03 06:42:45;;;;;;;;;;;;;;;17.88;82.09;98184.97;1752408;81;24896;-89
2021/08/03 06:45:22;;;;;;;;;;;;;;;17.92;81.97;98184.14;1758091;81;22054;-90
2021/08/03 06:50:45;;;;;;;;;;;;;;;17.96;81.74;98188.13;1775947;80;24715;-89
2021/08/03 06:53:11;;;;;;;;;;;;;;;18.01;81.57;98188.47;1770159;80;20257;-89
2021/08/03 06:55:41;;;;;;;;;;;;;;;18.05;81.42;98188.51;1765178;80;24775;-89
2021/08/03 06:58:09;;;;;;;;;;;;;;;18.08;81.31;98184.70;1765134;80;22790;-89
2021/08/03 07:00:39;;;;;;;;;;;;;;;18.14;81.21;98188.03;1764075;80;26056;-89
2021/08/03 07:03:12;;;;;;;;;;;;;;;18.17;81.11;98191.17;1769608;80;25394;-90
2021/08/03 07:05:40;;;;;;;;;;;;;;;18.25;81.00;98186.41;1772148;80;20225;-88
2021/08/03 07:08:09;;;;;;;;;;;;;;;18.33;80.90;98183.77;1762471;80;24377;-89
2021/08/03 07:10:36;;;;;;;;;;;;;;;18.43;80.83;98182.33;1765731;80;22031;-88
2021/08/03 07:13:02;;;;;;;;;;;;;;;18.51;80.79;98188.95;1767775;80;26079;-88
2021/08/03 07:15:28;;;;;;;;;;;;;;;18.54;80.65;98186.85;1765725;80;24371;-88
2021/08/03 07:17:55;;;;;;;;;;;;;;;18.61;80.47;98190.48;1739647;80;20378;-88
2021/08/03 07:20:22;;;;;;;;;;;;;;;18.64;80.33;98178.25;1711899;82;25565;-88
2021/08/03 07:22:48;;;;;;;;;;;;;;;18.64;80.16;98178.74;1759495;80;21950;-88
2021/08/03 07:25:14;;;;;;;;;;;;;;;18.65;79.93;98176.43;1740100;82;25929;-88
2021/08/03 07:27:40;;;;;;;;;;;;;;;18.74;79.70;98179.41;1771041;79;24381;-88
2021/08/03 07:30:08;;;;;;;;;;;;;;;18.83;79.54;98177.09;1742538;81;20302;-88
2021/08/03 07:32:35;;;;;;;;;;;;;;;18.90;79.37;98169.30;1743908;82;24729;-88
2021/08/03 07:35:02;;;;;;;;;;;;;;;18.99;79.18;98166.48;1742623;82;22274;-88
2021/08/03 07:37:30;;;;;;;;;;;;;;;19.08;79.05;98169.48;1735368;80;26779;-88
2021/08/03 07:39:57;;;;;;;;;;;;;;;19.14;78.84;98154.72;1714861;82;24493;-88
2021/08/03 07:42:25;;;;;;;;;;;;;;;19.28;78.71;98165.96;1740720;81;20205;-88
2021/08/03 07:44:51;;;;;;;;;;;;;;;19.39;78.57;98162.95;1748081;81;24832;-88
2021/08/03 07:47:16;;;;;;;;;;;;;;;19.45;78.42;98166.30;1771723;80;20637;-88
2021/08/03 07:49:42;;;;;;;;;;;;;;;19.53;78.19;98173.39;1770148;80;20916;-88
2021/08/03 07:52:09;;;;;;;;;;;;;;;19.60;78.02;98167.24;1772312;80;24227;-88
2021/08/03 07:54:35;;;;;;;;;;;;;;;19.61;77.81;98168.91;1742061;82;20508;-89
2021/08/03 07:57:01;;;;;;;;;;;;;;;19.62;77.59;98175.88;1744457;82;24705;-89
2021/08/03 07:59:27;;;;;;;;;;;;;;;19.70;77.31;98176.83;1743681;81;20848;-89
2021/08/03 08:01:54;;;;;;;;;;;;;;;19.78;77.09;98176.32;1743826;81;20955;-89
2021/08/03 08:04:20;;;;;;;;;;;;;;;19.87;76.88;98179.27;1744112;81;24514;-89
2021/08/03 08:06:47;;;;;;;;;;;;;;;19.95;76.70;98185.89;1744674;82;20278;-88
2021/08/03 08:09:13;;;;;;;;;;;;;;;19.98;76.50;98191.34;1742620;82;24732;-89
2021/08/03 08:11:39;;;;;;;;;;;;;;;20.00;76.29;98182.71;1736382;81;21986;-89
2021/08/03 08:14:05;;;;;;;;;;;;;;;20.05;76.11;98185.18;1740359;80;21341;-88
2021/08/03 08:16:34;;;;;;;;;;;;;;;20.08;75.95;98185.81;1746712;81;23905;-89
2021/08/03 08:19:00;;;;;;;;;;;;;;;20.04;75.71;98182.69;1766036;80;20271;-89
2021/08/03 08:21:33;;;;;;;;;;;;;;;20.05;75.50;98178.54;1763463;80;20280;-88
2021/08/03 08:23:57;;;;;;;;;;;;;;;20.11;75.36;98178.84;1767230;81;21993;-89
2021/08/03 08:26:23;;;;;;;;;;;;;;;20.15;75.16;98176.99;1754575;81;26088;-89
2021/08/03 08:28:49;;;;;;;;;;;;;;;20.27;75.00;98171.63;1760822;80;20241;-89
2021/08/03 08:31:16;;;;;;;;;;;;;;;20.36;74.86;98171.92;1761390;79;20744;-89
2021/08/03 08:33:42;;;;;;;;;;;;;;;20.43;74.65;98172.89;1762097;79;24972;-89
2021/08/03 08:36:08;;;;;;;;;;;;;;;20.55;74.45;98169.83;1768227;80;20224;-89
2021/08/03 08:38:34;;;;;;;;;;;;;;;20.64;74.24;98176.23;1759545;80;20678;-89
2021/08/03 08:41:01;;;;;;;;;;;;;;;20.74;74.07;98168.02;1761405;80;25237;-90
2021/08/03 08:43:28;;;;;;;;;;;;;;;20.84;73.87;98169.92;1765139;81;20216;-89
2021/08/03 08:45:55;;;;;;;;;;;;;;;20.89;73.65;98165.73;1741201;81;24754;-88
2021/08/03 08:48:22;;;;;;;;;;;;;;;20.91;73.38;98166.88;1725174;82;22888;-89
2021/08/03 08:50:50;;;;;;;;;;;;;;;20.98;73.21;98163.84;1730979;82;26102;-89
2021/08/03 08:53:16;;;;;;;;;;;;;;;21.08;73.05;98166.25;1721163;82;23984;-89
2021/08/03 08:55:42;;;;;;;;;;;;;;;21.17;72.83;98167.34;1725622;82;20570;-89
2021/08/03 08:58:08;;;;;;;;;;;;;;;21.28;72.66;98166.91;1759620;80;20766;-89
2021/08/03 09:00:34;;;;;;;;;;;;;;;21.36;72.48;98170.52;1729313;82;20831;-89
2021/08/03 09:03:07;;;;;;;;;;;;;;;21.43;72.18;98170.12;1728300;82;26258;-89
2021/08/03 09:05:34;;;;;;;;;;;;;;;21.52;71.89;98165.02;1770480;81;24465;-89
2021/08/03 09:08:02;;;;;;;;;;;;;;;21.57;71.62;98163.46;1740793;81;20236;-88
2021/08/03 09:10:39;;;;;;;;;;;;;;;21.63;71.34;98163.23;1712171;82;24691;-89
2021/08/03 09:13:15;;;;;;;;;;;;;;;21.65;71.00;98166.55;1725435;82;22023;-89
2021/08/03 09:15:49;;;;;;;;;;;;;;;21.78;70.79;98168.05;1756556;80;26738;-89
2021/08/03 09:18:16;;;;;;;;;;;;;;;21.94;70.60;98171.02;1765874;81;24510;-89
2021/08/03 09:20:44;;;;;;;;;;;;;;;21.99;70.29;98165.48;1750427;81;20211;-88
2021/08/03 09:23:11;;;;;;;;;;;;;;;22.10;70.16;98167.68;1725506;82;24324;-89
2021/08/03 09:25:38;;;;;;;;;;;;;;;22.19;70.08;98170.25;1731457;82;22595;-89
2021/08/03 09:28:06;;;;;;;;;;;;;;;22.23;69.98;98157.69;1766574;81;26904;-89
2021/08/03 09:30:34;;;;;;;;;;;;;;;22.29;69.81;98162.28;1765931;80;24572;-89
2021/08/03 09:33:01;;;;;;;;;;;;;;;22.36;69.62;98159.19;1760819;80;20249;-89
2021/08/03 09:35:28;;;;;;;;;;;;;;;22.41;69.46;98156.78;1760655;80;24763;-89
2021/08/03 09:37:55;;;;;;;;;;;;;;;22.40;69.22;98158.30;1758791;80;22011;-89
2021/08/03 09:40:29;;;;;;;;;;;;;;;22.40;68.92;98156.45;1754368;80;25966;-88
2021/08/03 09:43:09;;;;;;;;;;;;;;;22.49;68.70;98157.16;1762768;80;25243;-89
2021/08/03 09:45:37;;;;;;;;;;;;;;;22.61;68.54;98157.48;1751519;80;20394;-89
2021/08/03 09:48:08;;;;;;;;;;;;;;;22.65;68.37;98162.24;1768251;80;24865;-89
2021/08/03 09:50:54;;;;;;;;;;;;;;;22.72;68.17;98159.17;1758318;80;23205;-89
2021/08/03 09:53:37;;;;;;;;;;;;;;;22.74;67.92;98157.16;1740158;80;26748;-89
2021/08/03 09:56:03;;;;;;;;;;;;;;;22.79;67.69;98158.73;1737401;80;25232;-89
2021/08/03 09:58:31;;;;;;;;;;;;;;;22.87;67.51;98148.42;1739977;82;20297;-88
2021/08/03 10:00:59;;;;;;;;;;;;;;;22.86;67.24;98153.44;1738754;82;24871;-89
2021/08/03 10:03:25;;;;;;;;;;;;;;;22.97;67.08;98148.09;1735398;82;21762;-89
2021/08/03 10:05:52;;;;;;;;;;;;;;;23.03;66.85;98149.48;1737410;80;26084;-89
2021/08/03 10:08:18;;;;;;;;;;;;;;;23.06;66.62;98150.45;1708655;82;24358;-89
2021/08/03 10:10:45;;;;;;;;;;;;;;;23.06;66.29;98149.12;1713779;82;20170;-90
2021/08/03 10:13:11;;;;;;;;;;;;;;;23.07;65.94;98151.28;1724892;82;24628;-89
2021/08/03 10:15:37;;;;;;;;;;;;;;;23.11;65.73;98147.20;1750632;82;22058;-89
2021/08/03 10:18:04;;;;;;;;;;;;;;;23.15;65.61;98149.78;1749510;82;21006;-90
2021/08/03 10:20:40;;;;;;;;;;;;;;;23.16;65.46;98156.28;1751484;82;24477;-90
2021/08/03 10:23:06;;;;;;;;;;;;;;;23.19;65.27;98146.53;1738863;80;20520;-90
2021/08/03 10:25:35;;;;;;;;;;;;;;;23.22;64.99;98144.00;1751316;82;25335;-89
2021/08/03 10:28:03;;;;;;;;;;;;;;;23.22;64.70;98146.16;1746130;82;21996;-89
2021/08/03 10:30:31;;;;;;;;;;;;;;;23.25;64.53;98139.59;1748055;82;26047;-90
2021/08/03 10:32:59;;;;;;;;;;;;;;;23.33;64.48;98138.95;1750019;82;23814;-90
2021/08/03 10:35:27;;;;;;;;;;;;;;;23.38;64.38;98130.34;1750452;81;20308;-90
2021/08/03 10:38:01;;;;;;;;;;;;;;;23.42;64.23;98132.94;1738660;82;25381;-89
2021/08/03 10:40:37;;;;;;;;;;;;;;;23.44;64.06;98125.56;1750375;81;22007;-90
2021/08/03 10:43:22;;;;;;;;;;;;;;;23.49;63.82;98114.31;1729452;82;27828;-90
2021/08/03 10:45:50;;;;;;;;;;;;;;;23.55;63.59;98114.87;1750867;80;24512;-90
2021/08/03 10:51:18;;;;;;;;;;;;;;;23.72;63.29;98110.34;1750574;82;24926;-91
2021/08/03 10:54:13;;;;;;;;;;;;;;;23.76;63.02;98109.42;1750960;81;22769;-90
2021/08/03 10:56:56;;;;;;;;;;;;;;;23.76;62.69;98105.42;1745402;81;26180;-90
2021/08/03 10:59:38;;;;;;;;;;;;;;;23.83;62.50;98111.63;1747795;81;24416;-89
2021/08/03 11:02:06;;;;;;;;;;;;;;;23.83;62.22;98112.13;1746149;81;20229;-90
2021/08/03 11:04:42;;;;;;;;;;;;;;;23.84;61.98;98111.12;1769518;80;24841;-90
2021/08/03 11:07:16;;;;;;;;;;;;;;;23.84;61.74;98107.11;1769026;81;22766;-90
2021/08/03 11:09:42;;;;;;;;;;;;;;;23.87;61.50;98112.87;1753346;81;26330;-88
2021/08/03 11:12:10;;;;;;;;;;;;;;;23.88;61.14;98103.83;1727033;82;20272;-89
2021/08/03 11:14:39;;;;;;;;;;;;;;;23.89;60.91;98101.48;1738842;81;20201;-90
2021/08/03 11:17:05;;;;;;;;;;;;;;;23.83;60.53;98094.77;1751027;81;24739;-90
2021/08/03 11:19:33;;;;;;;;;;;;;;;23.78;60.30;98096.16;1742235;81;20868;-90
2021/08/03 11:22:06;;;;;;;;;;;;;;;23.83;60.14;98092.91;1765362;79;26727;-90
2021/08/03 11:24:43;;;;;;;;;;;;;;;23.85;59.91;98094.03;1771919;80;25178;-90
2021/08/03 11:27:16;;;;;;;;;;;;;;;23.88;59.77;98094.98;1773036;80;20170;-90
2021/08/03 11:29:42;;;;;;;;;;;;;;;23.94;59.75;98084.84;1767076;80;24797;-90
2021/08/03 11:32:09;;;;;;;;;;;;;;;23.97;59.58;98085.25;1768306;80;20893;-90
2021/08/03 11:34:40;;;;;;;;;;;;;;;24.03;59.48;98086.30;1771734;80;27048;-90
2021/08/03 11:37:28;;;;;;;;;;;;;;;24.09;59.39;98081.48;1768497;80;24396;-90
2021/08/03 11:39:55;;;;;;;;;;;;;;;24.14;59.22;98087.05;1769018;80;20284;-89
2021/08/03 11:42:35;;;;;;;;;;;;;;;24.16;58.93;98084.50;1772210;80;24747;-90
2021/08/03 11:45:06;;;;;;;;;;;;;;;24.16;58.65;98083.16;1770021;80;22202;-90
2021/08/03 11:47:44;;;;;;;;;;;;;;;24.21;58.42;98076.41;1720301;82;26146;-90
2021/08/03 11:50:17;;;;;;;;;;;;;;;24.27;58.32;98073.76;1708019;82;21360;-90
2021/08/03 11:52:49;;;;;;;;;;;;;;;24.33;58.05;98077.47;1734218;81;20205;-89
2021/08/03 11:55:15;;;;;;;;;;;;;;;24.36;57.79;98067.69;1731614;81;24769;-90
2021/08/03 11:57:44;;;;;;;;;;;;;;;24.41;57.64;98066.05;1770590;80;22088;-90
2021/08/03 12:00:12;;;;;;;;;;;;;;;24.48;57.51;98056.19;1742124;80;26049;-90
2021/08/03 12:02:39;;;;;;;;;;;;;;;24.51;57.10;98062.97;1749283;81;24502;-90
2021/08/03 12:05:18;;;;;;;;;;;;;;;24.52;56.87;98052.58;1745062;81;20266;-90
2021/08/03 12:07:49;;;;;;;;;;;;;;;24.57;56.71;98050.94;1759528;80;22749;-90
2021/08/03 12:10:16;;;;;;;;;;;;;;;24.62;56.44;98046.30;1728155;82;21996;-90
2021/08/03 12:12:43;;;;;;;;;;;;;;;24.65;56.09;98047.25;1769745;80;25915;-89
2021/08/03 12:15:11;;;;;;;;;;;;;;;24.70;55.86;98043.95;1750617;81;25348;-89
2021/08/03 12:17:37;;;;;;;;;;;;;;;24.72;55.82;98043.21;1750830;81;20240;-91
2021/08/03 12:20:22;;;;;;;;;;;;;;;24.74;55.79;98039.31;1745867;80;24752;-89
2021/08/03 12:22:49;;;;;;;;;;;;;;;24.80;55.79;98035.81;1743688;82;22054;-90
2021/08/03 12:25:15;;;;;;;;;;;;;;;24.86;55.49;98035.50;1744898;82;26131;-88
2021/08/03 12:27:48;;;;;;;;;;;;;;;24.87;55.25;98035.30;1728812;82;21309;-89
2021/08/03 12:30:39;;;;;;;;;;;;;;;24.90;54.94;98038.09;1773269;79;20562;-89
2021/08/03 12:33:06;;;;;;;;;;;;;;;24.90;54.71;98034.91;1765204;80;25020;-89
2021/08/03 12:35:38;;;;;;;;;;;;;;;24.92;54.34;98029.35;1759810;81;22548;-89
2021/08/03 12:38:15;;;;;;;;;;;;;;;24.96;54.23;98022.54;1766150;80;26217;-89
2021/08/03 12:40:46;;;;;;;;;;;;;;;25.03;54.22;98021.20;1762179;80;24406;-89
2021/08/03 12:43:12;;;;;;;;;;;;;;;25.01;54.18;98021.40;1757339;80;20547;-89
2021/08/03 12:45:42;;;;;;;;;;;;;;;25.06;54.18;98018.09;1771220;80;20493;-89
2021/08/03 12:48:09;;;;;;;;;;;;;;;25.15;54.15;98020.33;1726491;82;22015;-89
2021/08/03 12:50:52;;;;;;;;;;;;;;;25.12;53.85;98016.74;1739695;82;26066;-89
2021/08/03 12:53:22;;;;;;;;;;;;;;;25.02;53.59;98017.69;1765455;80;24447;-89
2021/08/03 12:55:57;;;;;;;;;;;;;;;24.90;53.24;98014.00;1770177;80;20734;-89
2021/08/03 12:58:47;;;;;;;;;;;;;;;24.89;53.09;98010.50;1739662;82;25498;-88
2021/08/03 13:01:16;;;;;;;;;;;;;;;24.94;53.06;98001.83;1736384;80;22076;-89
2021/08/03 13:03:53;;;;;;;;;;;;;;;25.00;53.20;98004.50;1737088;81;26831;-89